Time;durP1;ratioP1;P1;durP2;ratioP2;P2;SDS_P1;SDS_P2;PMS_P1;PMS_P2;Temp;Humidity;BMP_temperature;BMP_pressure;BME280_temperature;BME280_humidity;BME280_pressure;Samples;Min_cycle;Max_cycle;Signal;HPM_P1;HPM_P2
2023/08/06 00:01:14;;;;;;;12.20;11.10;;;;;;;-128.00;-1.00;-1.00;101951;1260;1005165;-75
2023/08/06 00:03:42;;;;;;;12.50;11.20;;;;;;;-128.00;-1.00;-1.00;101958;1254;1058393;-77
2023/08/06 00:06:10;;;;;;;11.80;10.80;;;;;;;-128.00;-1.00;-1.00;102016;1254;1005319;-76
2023/08/06 00:08:38;;;;;;;12.20;11.10;;;;;;;-128.00;-1.00;-1.00;101925;1254;1005359;-74
2023/08/06 00:11:05;;;;;;;11.80;10.80;;;;;;;-128.00;-1.00;-1.00;101910;1254;1005013;-75
2023/08/06 00:13:33;;;;;;;11.90;10.70;;;;;;;-128.00;-1.00;-1.00;101865;1257;1004549;-76
2023/08/06 00:16:19;;;;;;;11.20;10.20;;;;;;;-128.00;-1.00;-1.00;101905;1254;1005176;-75
2023/08/06 00:18:46;;;;;;;12.80;11.50;;;;;;;-128.00;-1.00;-1.00;101851;1254;1048363;-80
2023/08/06 00:21:14;;;;;;;12.50;11.20;;;;;;;-128.00;-1.00;-1.00;103307;1256;1004726;-79
2023/08/06 00:23:41;;;;;;;12.70;11.40;;;;;;;-128.00;-1.00;-1.00;104808;1254;1006615;-79
2023/08/06 00:26:09;;;;;;;13.20;12.00;;;;;;;-128.00;-1.00;-1.00;104050;1262;1004450;-79
2023/08/06 00:28:37;;;;;;;13.60;12.10;;;;;;;-128.00;-1.00;-1.00;102081;1259;1005036;-78
2023/08/06 00:31:04;;;;;;;13.30;12.10;;;;;;;-128.00;-1.00;-1.00;102130;1254;1004160;-83
2023/08/06 00:33:32;;;;;;;15.20;11.50;;;;;;;-128.00;-1.00;-1.00;102132;1254;1005125;-80
2023/08/06 00:36:00;;;;;;;14.10;11.60;;;;;;;-128.00;-1.00;-1.00;102096;1254;1004511;-79
2023/08/06 00:38:29;;;;;;;11.90;10.80;;;;;;;-128.00;-1.00;-1.00;102046;1257;1059681;-80
2023/08/06 00:40:56;;;;;;;12.40;11.10;;;;;;;-128.00;-1.00;-1.00;102133;1254;1004128;-78
2023/08/06 00:43:24;;;;;;;11.90;10.80;;;;;;;-128.00;-1.00;-1.00;102249;1256;1004609;-79
2023/08/06 00:45:52;;;;;;;12.20;11.00;;;;;;;-128.00;-1.00;-1.00;102525;1254;1004704;-79
2023/08/06 00:48:19;;;;;;;13.60;11.20;;;;;;;-128.00;-1.00;-1.00;104722;1256;1004728;-77
2023/08/06 00:50:47;;;;;;;11.60;10.50;;;;;;;-128.00;-1.00;-1.00;103506;1254;1004264;-80
2023/08/06 00:53:14;;;;;;;12.10;11.00;;;;;;;-128.00;-1.00;-1.00;103924;1254;1004794;-82
2023/08/06 00:55:43;;;;;;;11.50;10.50;;;;;;;-128.00;-1.00;-1.00;105369;1254;1004048;-80
2023/08/06 00:58:12;;;;;;;11.70;10.50;;;;;;;-128.00;-1.00;-1.00;102334;1260;1048980;-80
2023/08/06 01:00:40;;;;;;;11.90;10.80;;;;;;;-128.00;-1.00;-1.00;102013;1261;1062890;-84
2023/08/06 01:03:09;;;;;;;13.00;11.80;;;;;;;-128.00;-1.00;-1.00;102519;1256;1058013;-80
2023/08/06 01:05:36;;;;;;;13.20;11.90;;;;;;;-128.00;-1.00;-1.00;103249;1254;1004438;-81
2023/08/06 01:08:10;;;;;;;13.90;12.10;;;;;;;-128.00;-1.00;-1.00;103268;1254;1003948;-81
2023/08/06 01:11:06;;;;;;;13.40;10.40;;;;;;;-128.00;-1.00;-1.00;103225;1254;1047079;-82
2023/08/06 01:13:47;;;;;;;11.20;10.30;;;;;;;-128.00;-1.00;-1.00;103788;1256;1060666;-80
2023/08/06 01:16:19;;;;;;;12.30;11.10;;;;;;;-128.00;-1.00;-1.00;103287;1261;1060094;-81
2023/08/06 01:18:49;;;;;;;12.00;10.90;;;;;;;-128.00;-1.00;-1.00;103097;1260;1058606;-83
2023/08/06 01:21:18;;;;;;;12.50;11.40;;;;;;;-128.00;-1.00;-1.00;103032;1254;1046931;-83
2023/08/06 01:23:46;;;;;;;12.10;10.90;;;;;;;-128.00;-1.00;-1.00;104408;1254;1049219;-83
2023/08/06 01:26:27;;;;;;;12.10;11.00;;;;;;;-128.00;-1.00;-1.00;105542;1256;1003797;-80
2023/08/06 01:29:08;;;;;;;12.10;10.80;;;;;;;-128.00;-1.00;-1.00;103275;1262;1059129;-82
2023/08/06 01:31:39;;;;;;;14.20;10.90;;;;;;;-128.00;-1.00;-1.00;103678;1254;1059894;-81
2023/08/06 01:34:09;;;;;;;11.60;10.50;;;;;;;-128.00;-1.00;-1.00;103473;1256;1049283;-80
2023/08/06 01:36:37;;;;;;;12.40;11.30;;;;;;;-128.00;-1.00;-1.00;103124;1261;1046979;-82
2023/08/06 01:39:04;;;;;;;12.40;11.10;;;;;;;-128.00;-1.00;-1.00;102235;1257;1004984;-83
2023/08/06 01:41:32;;;;;;;11.90;10.90;;;;;;;-128.00;-1.00;-1.00;102807;1259;1004482;-83
2023/08/06 01:44:00;;;;;;;12.60;11.40;;;;;;;-128.00;-1.00;-1.00;102361;1255;1004572;-81
2023/08/06 01:46:27;;;;;;;12.30;11.10;;;;;;;-128.00;-1.00;-1.00;102479;1260;1004468;-82
2023/08/06 01:48:55;;;;;;;11.60;10.50;;;;;;;-128.00;-1.00;-1.00;102503;1254;1004310;-82
2023/08/06 01:51:22;;;;;;;11.00;10.10;;;;;;;-128.00;-1.00;-1.00;102775;1254;1004799;-81
2023/08/06 01:53:50;;;;;;;12.10;10.80;;;;;;;-128.00;-1.00;-1.00;105102;1254;1003795;-82
2023/08/06 01:56:18;;;;;;;11.60;10.00;;;;;;;-128.00;-1.00;-1.00;105580;1254;1004598;-82
2023/08/06 01:58:46;;;;;;;11.10;10.10;;;;;;;-128.00;-1.00;-1.00;104932;1254;1004584;-81
2023/08/06 02:01:13;;;;;;;12.60;10.80;;;;;;;-128.00;-1.00;-1.00;102268;1262;1004732;-84
2023/08/06 02:03:41;;;;;;;11.50;10.30;;;;;;;-128.00;-1.00;-1.00;102310;1254;1004807;-83
2023/08/06 02:06:10;;;;;;;11.80;10.70;;;;;;;-128.00;-1.00;-1.00;102532;1254;1059228;-84
2023/08/06 02:08:38;;;;;;;10.70;9.70;;;;;;;-128.00;-1.00;-1.00;103314;1257;1004792;-82
2023/08/06 02:11:05;;;;;;;11.40;10.30;;;;;;;-128.00;-1.00;-1.00;104340;1254;1004846;-83
2023/08/06 02:13:34;;;;;;;11.50;10.40;;;;;;;-128.00;-1.00;-1.00;104553;1254;1050355;-84
2023/08/06 02:16:02;;;;;;;13.50;9.50;;;;;;;-128.00;-1.00;-1.00;104197;1255;1004648;-81
2023/08/06 02:18:30;;;;;;;11.30;10.40;;;;;;;-128.00;-1.00;-1.00;104719;1254;1004628;-83
2023/08/06 02:21:00;;;;;;;13.50;10.50;;;;;;;-128.00;-1.00;-1.00;104667;1257;1005256;-83
2023/08/06 02:23:28;;;;;;;16.60;10.60;;;;;;;-128.00;-1.00;-1.00;105115;1254;1047734;-81
2023/08/06 02:28:46;;;;;;;12.00;11.00;;;;;;;24.55;71.02;99254.42;104825;1295;600153;-81
2023/08/06 02:31:14;;;;;;;13.00;11.80;;;;;;;24.52;71.03;99253.17;106899;1266;61049;-82
2023/08/06 02:33:42;;;;;;;11.90;10.90;;;;;;;24.50;70.98;99254.35;107235;1269;59206;-81
2023/08/06 02:36:10;;;;;;;12.10;11.10;;;;;;;24.48;71.15;99256.89;107777;1267;70668;-81
2023/08/06 02:38:38;;;;;;;11.20;10.10;;;;;;;24.47;71.08;99255.70;108510;1266;69527;-83
2023/08/06 02:41:05;;;;;;;11.60;10.60;;;;;;;24.51;71.01;99253.28;108351;1266;71184;-83
2023/08/06 02:43:33;;;;;;;13.80;11.10;;;;;;;24.58;71.20;99259.31;108124;1265;252408;-84
2023/08/06 02:46:01;;;;;;;11.80;10.70;;;;;;;24.57;71.14;99264.86;108467;1265;58988;-82
2023/08/06 02:48:29;;;;;;;11.70;10.60;;;;;;;24.55;70.94;99265.56;108334;1265;71147;-84
2023/08/06 02:50:58;;;;;;;13.10;11.60;;;;;;;24.52;71.13;99261.27;107640;1272;68359;-82
2023/08/06 02:53:26;;;;;;;12.20;11.00;;;;;;;24.49;71.37;99260.10;109086;1255;71204;-83
2023/08/06 02:55:54;;;;;;;12.10;11.00;;;;;;;24.47;71.31;99255.11;109056;1256;59069;-81
2023/08/06 02:58:29;;;;;;;12.10;10.90;;;;;;;24.45;71.41;99257.11;109234;1257;59226;-82
2023/08/06 03:01:05;;;;;;;13.00;11.80;;;;;;;24.43;71.37;99255.64;109163;1258;71853;-82
2023/08/06 03:03:40;;;;;;;11.00;9.80;;;;;;;24.49;71.38;99251.69;108422;1257;68955;-81
2023/08/06 03:06:08;;;;;;;12.20;11.00;;;;;;;24.54;71.28;99255.40;107861;1262;73540;-81
2023/08/06 03:08:46;;;;;;;12.30;11.00;;;;;;;24.52;71.50;99254.36;107796;1258;58543;-80
2023/08/06 03:11:13;;;;;;;12.20;10.90;;;;;;;24.49;71.47;99257.21;107843;1257;60297;-80
2023/08/06 03:13:41;;;;;;;12.60;11.40;;;;;;;24.47;71.44;99256.89;107796;1257;71787;-80
2023/08/06 03:16:09;;;;;;;13.00;11.70;;;;;;;24.45;71.58;99251.95;108652;1259;68750;-82
2023/08/06 03:18:38;;;;;;;13.90;12.50;;;;;;;24.43;71.72;99251.66;107187;1257;71477;-80
2023/08/06 03:21:08;;;;;;;12.80;11.70;;;;;;;24.39;71.94;99253.90;106809;1264;59566;-80
2023/08/06 03:23:35;;;;;;;15.60;11.50;;;;;;;24.35;72.08;99247.48;108655;1257;61000;-80
2023/08/06 03:26:03;;;;;;;12.60;11.30;;;;;;;24.38;72.31;99249.12;108694;1257;72048;-79
2023/08/06 03:28:31;;;;;;;12.40;11.30;;;;;;;24.40;72.37;99250.21;108515;1257;69269;-79
2023/08/06 03:31:03;;;;;;;13.30;12.10;;;;;;;24.36;72.53;99246.78;106060;1262;71632;-79
2023/08/06 03:33:36;;;;;;;13.60;12.00;;;;;;;24.29;72.67;99239.14;106093;1261;59720;-80
2023/08/06 03:36:05;;;;;;;12.60;11.50;;;;;;;24.26;72.71;99239.56;105904;1263;59811;-78
2023/08/06 03:38:33;;;;;;;14.00;12.70;;;;;;;24.23;72.79;99240.66;106142;1257;74207;-78
2023/08/06 03:41:02;;;;;;;12.70;11.70;;;;;;;24.20;72.94;99243.03;105926;1265;69441;-78
2023/08/06 03:43:30;;;;;;;12.40;11.20;;;;;;;24.17;73.19;99243.52;105760;1259;72813;-79
2023/08/06 03:45:58;;;;;;;15.00;11.10;;;;;;;24.22;73.05;99243.69;105663;1256;61697;-81
2023/08/06 03:48:26;;;;;;;13.00;11.90;;;;;;;24.29;73.14;99240.87;105717;1254;59726;-79
2023/08/06 03:50:53;;;;;;;13.10;11.90;;;;;;;24.28;73.31;99241.73;105733;1256;73184;-77
2023/08/06 03:53:21;;;;;;;14.50;12.00;;;;;;;24.27;73.32;99238.75;105998;1254;71294;-79
2023/08/06 03:55:49;;;;;;;13.20;12.00;;;;;;;24.26;73.19;99240.70;107333;1255;72684;-80
2023/08/06 03:58:16;;;;;;;13.20;12.00;;;;;;;24.25;73.32;99233.27;108862;1254;59210;-79
2023/08/06 04:00:44;;;;;;;13.60;12.50;;;;;;;24.26;73.34;99234.73;106581;1259;60056;-78
2023/08/06 04:03:11;;;;;;;12.80;11.70;;;;;;;24.27;73.33;99235.76;105900;1258;71811;-79
2023/08/06 04:05:40;;;;;;;11.90;10.80;;;;;;;24.35;73.36;99233.27;107174;1256;68955;-78
2023/08/06 04:08:08;;;;;;;12.40;11.20;;;;;;;24.45;73.18;99233.05;106598;1257;72811;-78
2023/08/06 04:10:36;;;;;;;13.10;11.70;;;;;;;24.48;73.16;99230.56;108324;1259;59346;-76
2023/08/06 04:13:04;;;;;;;12.90;11.80;;;;;;;24.52;73.03;99228.73;107201;1257;59801;-79
2023/08/06 04:15:33;;;;;;;12.90;11.70;;;;;;;24.59;72.91;99223.84;106381;1259;73488;-80
2023/08/06 04:18:01;;;;;;;13.10;11.80;;;;;;;24.71;72.48;99224.59;106160;1259;68997;-80
2023/08/06 04:20:29;;;;;;;13.00;11.90;;;;;;;24.83;72.07;99221.58;106336;1257;71743;-82
2023/08/06 04:22:58;;;;;;;12.90;11.70;;;;;;;24.92;71.97;99216.72;105795;1255;59686;-78
2023/08/06 04:25:25;;;;;;;12.80;11.60;;;;;;;25.01;71.74;99217.52;107364;1254;59555;-78
2023/08/06 04:27:53;;;;;;;14.10;11.50;;;;;;;25.11;71.52;99213.52;109135;1256;71550;-80
2023/08/06 04:30:20;;;;;;;13.80;11.60;;;;;;;25.31;71.06;99208.58;108561;1256;68715;-81
2023/08/06 04:32:49;;;;;;;13.30;11.90;;;;;;;25.53;70.66;99209.02;106140;1254;71688;-81
2023/08/06 04:35:17;;;;;;;14.00;11.30;;;;;;;25.67;70.35;99205.95;105765;1258;60514;-80
2023/08/06 04:37:45;;;;;;;12.40;11.40;;;;;;;25.76;69.98;99204.60;105794;1257;60156;-83
2023/08/06 04:40:13;;;;;;;12.80;10.90;;;;;;;25.81;69.13;99205.92;105825;1254;73318;-82
2023/08/06 04:42:40;;;;;;;12.00;10.90;;;;;;;25.84;68.75;99197.69;105987;1254;70343;-78
2023/08/06 04:45:09;;;;;;;12.90;11.70;;;;;;;25.93;68.39;99196.57;105818;1254;71867;-82
2023/08/06 04:47:36;;;;;;;12.30;11.20;;;;;;;26.07;67.67;99199.41;105909;1261;61125;-80
2023/08/06 04:50:05;;;;;;;12.00;11.00;;;;;;;26.15;66.78;99193.15;106106;1254;60644;-80
2023/08/06 04:52:32;;;;;;;11.90;10.70;;;;;;;26.17;65.80;99189.52;106284;1254;72330;-83
2023/08/06 04:55:00;;;;;;;11.40;10.30;;;;;;;26.18;65.22;99192.90;107428;1256;69081;-79
2023/08/06 04:57:27;;;;;;;11.60;10.50;;;;;;;26.19;64.54;99188.88;108016;1256;71213;-81
2023/08/06 04:59:55;;;;;;;12.80;11.60;;;;;;;26.21;64.30;99184.18;107460;1259;59670;-81
2023/08/06 05:02:22;;;;;;;11.60;10.30;;;;;;;26.31;64.10;99181.85;106045;1254;59634;-82
2023/08/06 05:04:50;;;;;;;12.50;11.30;;;;;;;26.44;63.99;99180.86;106023;1254;71841;-83
2023/08/06 05:07:18;;;;;;;12.40;11.20;;;;;;;26.53;63.70;99176.86;106039;1257;69074;-82
2023/08/06 05:09:46;;;;;;;11.60;10.60;;;;;;;26.58;63.23;99169.75;105851;1256;73003;-75
2023/08/06 05:12:13;;;;;;;12.50;11.40;;;;;;;26.61;62.85;99171.64;105485;1257;59305;-76
2023/08/06 05:14:41;;;;;;;11.70;10.20;;;;;;;26.62;62.82;99166.45;105547;1254;59547;-73
2023/08/06 05:17:08;;;;;;;11.30;10.30;;;;;;;26.64;62.67;99168.50;105519;1257;73044;-75
2023/08/06 05:19:36;;;;;;;11.50;10.50;;;;;;;26.66;62.59;99169.46;105390;1260;68723;-75
2023/08/06 05:22:04;;;;;;;13.00;10.60;;;;;;;26.69;62.51;99170.13;105458;1260;71442;-73
2023/08/06 05:24:31;;;;;;;12.40;11.10;;;;;;;26.68;61.76;99162.97;106952;1254;61587;-76
2023/08/06 05:26:59;;;;;;;11.30;10.40;;;;;;;26.71;61.82;99163.58;107132;1258;59509;-72
2023/08/06 05:29:27;;;;;;;12.40;11.20;;;;;;;26.73;61.78;99160.89;105948;1256;71982;-72
2023/08/06 05:31:54;;;;;;;11.30;10.40;;;;;;;26.76;61.83;99160.84;105372;1261;69281;-75
2023/08/06 05:34:22;;;;;;;12.10;10.90;;;;;;;26.80;61.73;99158.36;105479;1254;71960;-76
2023/08/06 05:36:50;;;;;;;11.30;10.20;;;;;;;26.83;61.60;99159.57;105521;1256;59733;-75
2023/08/06 05:39:17;;;;;;;12.60;11.20;;;;;;;26.86;61.34;99157.41;105576;1259;59552;-78
2023/08/06 05:41:45;;;;;;;11.50;10.60;;;;;;;26.90;61.40;99152.73;105466;1257;71979;-78
2023/08/06 05:44:12;;;;;;;11.90;10.80;;;;;;;26.94;61.30;99154.48;106148;1259;70580;-79
2023/08/06 05:46:40;;;;;;;11.60;10.40;;;;;;;26.99;61.30;99148.65;106212;1262;72980;-77
2023/08/06 05:49:07;;;;;;;12.20;10.70;;;;;;;27.05;61.18;99149.23;105800;1259;60881;-77
2023/08/06 05:51:35;;;;;;;11.80;10.50;;;;;;;27.11;60.86;99144.68;105437;1254;59692;-72
2023/08/06 05:54:03;;;;;;;11.20;10.10;;;;;;;27.17;60.39;99139.85;105508;1256;71776;-75
2023/08/06 05:56:30;;;;;;;11.00;10.00;;;;;;;27.24;60.36;99139.02;106822;1257;70150;-74
2023/08/06 05:58:58;;;;;;;11.00;9.90;;;;;;;27.32;60.33;99131.36;106488;1256;71756;-75
2023/08/06 06:01:25;;;;;;;13.70;10.10;;;;;;;27.39;59.85;99130.39;106031;1254;60087;-75
2023/08/06 06:03:53;;;;;;;11.50;10.50;;;;;;;27.45;59.48;99127.84;105608;1259;60032;-78
2023/08/06 06:06:20;;;;;;;10.50;9.60;;;;;;;27.52;59.26;99119.89;105836;1259;73483;-75
2023/08/06 06:08:48;;;;;;;10.90;9.90;;;;;;;27.57;58.95;99116.80;105733;1256;69510;-74
2023/08/06 06:11:15;;;;;;;11.00;9.90;;;;;;;27.63;58.33;99114.92;105222;1260;72018;-70
2023/08/06 06:13:43;;;;;;;11.40;10.30;;;;;;;27.71;58.14;99109.57;105473;1260;60137;-76
2023/08/06 06:16:10;;;;;;;11.60;10.40;;;;;;;27.77;57.58;99108.39;105559;1257;59749;-74
2023/08/06 06:18:38;;;;;;;10.40;9.60;;;;;;;27.82;57.43;99109.44;105444;1260;73881;-75
2023/08/06 06:21:05;;;;;;;10.50;9.60;;;;;;;27.88;57.24;99111.05;105447;1255;68670;-75
2023/08/06 06:23:34;;;;;;;11.30;10.30;;;;;;;27.93;56.76;99109.89;105644;1255;72651;-71
2023/08/06 06:26:02;;;;;;;11.20;9.90;;;;;;;27.99;56.23;99112.41;105633;1257;60109;-73
2023/08/06 06:28:31;;;;;;;12.70;9.50;;;;;;;28.04;56.01;99098.80;107129;1260;59573;-74
2023/08/06 06:31:03;;;;;;;11.10;9.30;;;;;;;28.08;56.01;99100.45;106042;1260;75244;-74
2023/08/06 06:33:31;;;;;;;10.30;9.40;;;;;;;28.14;55.84;99094.09;105457;1259;69063;-74
2023/08/06 06:35:58;;;;;;;9.70;8.60;;;;;;;28.19;55.56;99087.22;105406;1255;72663;-76
2023/08/06 06:38:26;;;;;;;11.10;10.10;;;;;;;28.25;55.45;99084.61;105754;1254;62497;-75
2023/08/06 06:40:54;;;;;;;10.60;9.30;;;;;;;28.31;55.20;99080.88;105783;1256;60473;-77
2023/08/06 06:43:23;;;;;;;9.80;8.90;;;;;;;28.36;55.00;99076.48;106144;1257;72562;-78
2023/08/06 06:45:56;;;;;;;11.00;9.80;;;;;;;28.40;54.92;99073.66;106602;1254;70464;-77
2023/08/06 06:48:29;;;;;;;11.00;9.60;;;;;;;28.45;54.93;99068.00;106262;1254;71410;-77
2023/08/06 06:50:56;;;;;;;10.20;9.20;;;;;;;28.51;55.17;99062.29;106757;1256;59972;-79
2023/08/06 06:53:27;;;;;;;10.10;9.20;;;;;;;28.58;55.31;99059.80;106569;1257;60542;-78
2023/08/06 06:55:55;;;;;;;10.90;9.60;;;;;;;28.67;55.29;99054.64;106574;1255;73080;-76
2023/08/06 06:58:22;;;;;;;14.70;9.30;;;;;;;28.78;55.15;99051.63;108934;1254;69264;-77
2023/08/06 07:00:50;;;;;;;10.60;8.90;;;;;;;28.91;55.02;99050.82;108917;1256;71735;-77
2023/08/06 07:03:21;;;;;;;9.40;8.50;;;;;;;29.03;54.53;99043.70;108820;1256;58788;-76
2023/08/06 07:05:49;;;;;;;10.50;9.10;;;;;;;29.14;54.04;99043.76;108848;1255;60955;-76
2023/08/06 07:08:17;;;;;;;9.90;8.80;;;;;;;29.22;53.89;99030.52;108708;1257;74756;-77
2023/08/06 07:10:45;;;;;;;9.60;8.50;;;;;;;29.32;53.95;99027.86;108678;1254;69960;-77
2023/08/06 07:13:13;;;;;;;10.30;9.20;;;;;;;29.43;54.15;99028.42;108747;1255;71469;-77
2023/08/06 07:15:40;;;;;;;9.60;8.60;;;;;;;29.52;53.70;99027.55;108682;1255;58818;-77
2023/08/06 07:18:08;;;;;;;9.90;9.10;;;;;;;29.60;53.64;99021.66;108871;1256;58733;-78
2023/08/06 07:20:35;;;;;;;10.40;9.40;;;;;;;29.69;53.49;99016.73;108371;1259;73042;-75
2023/08/06 07:23:03;;;;;;;10.60;9.00;;;;;;;29.78;53.40;99014.02;105611;1255;68769;-76
2023/08/06 07:25:34;;;;;;;11.10;9.90;;;;;;;29.86;53.69;99008.73;105799;1257;72024;-76
2023/08/06 07:28:02;;;;;;;9.30;8.40;;;;;;;29.92;53.65;99003.90;106766;1256;60443;-76
2023/08/06 07:30:30;;;;;;;9.60;8.40;;;;;;;29.99;53.40;99005.86;107551;1254;60316;-79
2023/08/06 07:32:58;;;;;;;12.50;9.10;;;;;;;30.04;52.81;99004.52;106897;1259;72616;-76
2023/08/06 07:35:28;;;;;;;9.40;8.60;;;;;;;30.07;52.57;99001.59;105781;1260;71169;-76
2023/08/06 07:37:56;;;;;;;9.90;9.00;;;;;;;30.10;52.79;98998.89;105787;1259;71547;-78
2023/08/06 07:40:23;;;;;;;9.60;8.70;;;;;;;30.12;52.77;98993.36;105705;1254;60428;-76
2023/08/06 07:42:51;;;;;;;10.20;8.80;;;;;;;30.14;52.39;98994.34;105542;1257;61036;-77
2023/08/06 07:45:18;;;;;;;9.60;8.70;;;;;;;30.16;52.34;98991.38;105712;1254;73869;-78
2023/08/06 07:47:46;;;;;;;10.00;9.10;;;;;;;30.19;52.53;98988.48;105547;1262;69255;-75
2023/08/06 07:50:13;;;;;;;9.40;8.60;;;;;;;30.24;52.64;98990.66;105503;1257;72889;-77
2023/08/06 07:52:41;;;;;;;9.50;8.70;;;;;;;30.29;52.14;98990.14;105965;1259;60630;-76
2023/08/06 07:55:08;;;;;;;11.50;8.40;;;;;;;30.33;51.96;98982.59;106343;1257;60548;-74
2023/08/06 07:57:37;;;;;;;10.00;8.10;;;;;;;30.38;51.82;98974.23;105697;1261;73880;-76
2023/08/06 08:00:06;;;;;;;10.20;8.50;;;;;;;30.45;52.07;98970.25;107313;1257;69485;-77
2023/08/06 08:02:39;;;;;;;9.40;8.50;;;;;;;30.53;52.25;98973.59;107267;1255;71383;-75
2023/08/06 08:05:08;;;;;;;9.90;8.10;;;;;;;30.60;51.87;98975.34;106164;1259;60470;-77
2023/08/06 08:07:35;;;;;;;9.50;8.70;;;;;;;30.67;51.04;98968.45;105998;1254;60610;-76
2023/08/06 08:10:05;;;;;;;9.20;8.40;;;;;;;-64.52;19.73;39588.73;103700;1260;1002406;-77
2023/08/06 08:12:32;;;;;;;8.70;8.00;;;;;;;-128.00;-1.00;-1.00;102338;1259;1057839;-79
2023/08/06 08:15:00;;;;;;;8.50;7.80;;;;;;;-128.00;-1.00;-1.00;102214;1259;1004200;-77
2023/08/06 08:17:28;;;;;;;8.80;8.00;;;;;;;-128.00;-1.00;-1.00;101819;1256;1005003;-76
2023/08/06 08:19:56;;;;;;;10.00;8.40;;;;;;;-128.00;-1.00;-1.00;102212;1257;1004939;-77
2023/08/06 08:22:23;;;;;;;9.20;7.90;;;;;;;-128.00;-1.00;-1.00;102087;1255;1004946;-76
2023/08/06 08:24:51;;;;;;;9.40;8.30;;;;;;;-128.00;-1.00;-1.00;102173;1257;1004437;-77
2023/08/06 08:27:18;;;;;;;10.50;8.50;;;;;;;-128.00;-1.00;-1.00;102513;1257;1004858;-76
2023/08/06 08:29:45;;;;;;;8.90;8.20;;;;;;;-128.00;-1.00;-1.00;103324;1254;1004567;-76
2023/08/06 08:32:13;;;;;;;9.40;7.90;;;;;;;-128.00;-1.00;-1.00;103625;1254;1004426;-73
2023/08/06 08:34:40;;;;;;;9.40;8.50;;;;;;;-128.00;-1.00;-1.00;102781;1256;1004566;-76
2023/08/06 08:37:08;;;;;;;8.90;8.10;;;;;;;-128.00;-1.00;-1.00;102716;1254;1005460;-78
2023/08/06 08:39:35;;;;;;;9.00;8.00;;;;;;;-128.00;-1.00;-1.00;102973;1255;1004543;-78
2023/08/06 08:42:03;;;;;;;10.50;8.50;;;;;;;-128.00;-1.00;-1.00;102332;1259;1005820;-78
2023/08/06 08:44:32;;;;;;;9.00;8.10;;;;;;;-128.00;-1.00;-1.00;102059;1257;1003607;-79
2023/08/06 08:46:59;;;;;;;9.60;8.80;;;;;;;-128.00;-1.00;-1.00;102210;1254;1005122;-80
2023/08/06 08:49:27;;;;;;;10.00;8.10;;;;;;;-128.00;-1.00;-1.00;102168;1257;1005395;-77
2023/08/06 08:51:55;;;;;;;13.20;8.90;;;;;;;-128.00;-1.00;-1.00;102094;1256;1003927;-81
2023/08/06 08:54:23;;;;;;;9.40;7.70;;;;;;;-128.00;-1.00;-1.00;102146;1257;1003816;-74
2023/08/06 08:56:50;;;;;;;8.80;7.90;;;;;;;-128.00;-1.00;-1.00;102026;1259;1005009;-80
2023/08/06 08:59:18;;;;;;;9.70;8.70;;;;;;;-128.00;-1.00;-1.00;101990;1256;1005220;-79
2023/08/06 09:01:46;;;;;;;9.10;8.20;;;;;;;-128.00;-1.00;-1.00;102872;1256;1004392;-78
2023/08/06 09:04:14;;;;;;;11.00;8.70;;;;;;;-128.00;-1.00;-1.00;103422;1256;1004994;-79
2023/08/06 09:06:41;;;;;;;11.50;8.10;;;;;;;-128.00;-1.00;-1.00;103054;1260;1004416;-76
2023/08/06 09:09:12;;;;;;;8.70;7.80;;;;;;;-128.00;-1.00;-1.00;102203;1256;1006442;-77
2023/08/06 09:11:43;;;;;;;11.30;7.70;;;;;;;-128.00;-1.00;-1.00;102068;1262;1062084;-79
2023/08/06 09:14:11;;;;;;;9.60;8.30;;;;;;;-128.00;-1.00;-1.00;102209;1255;1058809;-80
2023/08/06 09:16:38;;;;;;;8.70;7.10;;;;;;;-128.00;-1.00;-1.00;102446;1257;1059895;-83
2023/08/06 09:19:07;;;;;;;11.00;8.20;;;;;;;-128.00;-1.00;-1.00;102189;1261;1004222;-79
2023/08/06 09:21:42;;;;;;;8.80;7.50;;;;;;;-128.00;-1.00;-1.00;102018;1257;1047511;-77
2023/08/06 09:24:10;;;;;;;8.70;7.90;;;;;;;-128.00;-1.00;-1.00;102000;1259;1060024;-75
2023/08/06 09:26:39;;;;;;;9.50;8.60;;;;;;;-128.00;-1.00;-1.00;102118;1256;1059687;-77
2023/08/06 09:29:08;;;;;;;11.30;7.90;;;;;;;-128.00;-1.00;-1.00;101835;1257;1059852;-75
2023/08/06 09:31:43;;;;;;;10.90;7.60;;;;;;;-128.00;-1.00;-1.00;101918;1257;1047014;-76
2023/08/06 09:34:17;;;;;;;8.90;7.80;;;;;;;-128.00;-1.00;-1.00;102545;1256;1046839;-78
2023/08/06 09:36:46;;;;;;;8.50;7.70;;;;;;;-128.00;-1.00;-1.00;103718;1255;1060330;-77
2023/08/06 09:39:15;;;;;;;9.00;7.00;;;;;;;-128.00;-1.00;-1.00;103153;1254;1057310;-77
2023/08/06 09:41:43;;;;;;;8.70;7.00;;;;;;;-128.00;-1.00;-1.00;102452;1256;1059332;-77
2023/08/06 09:44:19;;;;;;;8.40;7.60;;;;;;;-128.00;-1.00;-1.00;102436;1257;1004854;-77
2023/08/06 09:46:57;;;;;;;8.90;8.00;;;;;;;-128.00;-1.00;-1.00;102084;1256;1049124;-75
2023/08/06 09:49:40;;;;;;;9.10;6.90;;;;;;;-128.00;-1.00;-1.00;102481;1255;1060798;-75
2023/08/06 09:52:12;;;;;;;8.20;7.50;;;;;;;-128.00;-1.00;-1.00;102243;1257;1060758;-79
2023/08/06 09:54:40;;;;;;;12.40;7.40;;;;;;;-128.00;-1.00;-1.00;102171;1254;1061070;-78
2023/08/06 09:57:07;;;;;;;10.40;7.70;;;;;;;-128.00;-1.00;-1.00;102056;1257;1004512;-78
2023/08/06 09:59:35;;;;;;;9.70;7.10;;;;;;;-128.00;-1.00;-1.00;102650;1259;1005027;-80
2023/08/06 10:02:03;;;;;;;8.10;7.20;;;;;;;-128.00;-1.00;-1.00;102768;1256;1004063;-78
2023/08/06 10:04:30;;;;;;;11.40;7.20;;;;;;;-128.00;-1.00;-1.00;102143;1257;1004656;-79
2023/08/06 10:07:07;;;;;;;8.10;7.30;;;;;;;-128.00;-1.00;-1.00;102340;1259;1061709;-76
2023/08/06 10:09:35;;;;;;;7.70;6.90;;;;;;;-128.00;-1.00;-1.00;103535;1256;1005962;-77
2023/08/06 10:12:04;;;;;;;8.40;6.90;;;;;;;-128.00;-1.00;-1.00;103894;1255;1004384;-77
2023/08/06 10:14:33;;;;;;;9.70;7.50;;;;;;;-128.00;-1.00;-1.00;102716;1256;1062181;-77
2023/08/06 10:17:01;;;;;;;10.90;6.80;;;;;;;-128.00;-1.00;-1.00;102069;1259;1059748;-77
2023/08/06 10:19:29;;;;;;;9.40;7.00;;;;;;;-128.00;-1.00;-1.00;102076;1257;1004312;-76
2023/08/06 10:22:13;;;;;;;6.90;6.20;;;;;;;-128.00;-1.00;-1.00;102394;1257;1005680;-76
2023/08/06 10:24:47;;;;;;;9.20;7.30;;;;;;;-128.00;-1.00;-1.00;102450;1254;1047267;-78
2023/08/06 10:27:35;;;;;;;8.50;6.80;;;;;;;-128.00;-1.00;-1.00;102483;1256;1061009;-78
2023/08/06 10:30:29;;;;;;;8.70;7.00;;;;;;;-128.00;-1.00;-1.00;102510;1257;1060000;-77
2023/08/06 10:33:01;;;;;;;7.90;6.60;;;;;;;-128.00;-1.00;-1.00;102570;1260;1059540;-80
2023/08/06 10:35:32;;;;;;;8.20;6.50;;;;;;;-128.00;-1.00;-1.00;102354;1263;1047831;-78
2023/08/06 10:38:10;;;;;;;7.20;6.50;;;;;;;-128.00;-1.00;-1.00;102711;1260;1049239;-79
2023/08/06 10:40:43;;;;;;;11.00;6.60;;;;;;;-128.00;-1.00;-1.00;104922;1254;1060075;-78
2023/08/06 10:43:43;;;;;;;9.00;6.40;;;;;;;-128.00;-1.00;-1.00;105390;1255;1057095;-77
2023/08/06 10:46:12;;;;;;;12.80;7.00;;;;;;;-128.00;-1.00;-1.00;104952;1255;1058824;-75
2023/08/06 10:48:41;;;;;;;7.50;6.60;;;;;;;-128.00;-1.00;-1.00;104779;1256;1047504;-76
2023/08/06 10:51:13;;;;;;;8.20;6.40;;;;;;;-128.00;-1.00;-1.00;105020;1257;1005161;-77
2023/08/06 10:53:46;;;;;;;6.60;6.00;;;;;;;-128.00;-1.00;-1.00;105307;1255;1060833;-78
2023/08/06 10:56:21;;;;;;;7.80;6.40;;;;;;;-128.00;-1.00;-1.00;105428;1255;1056775;-78
2023/08/06 10:58:50;;;;;;;8.80;6.50;;;;;;;-128.00;-1.00;-1.00;105417;1254;1058081;-76
2023/08/06 11:01:17;;;;;;;8.90;6.80;;;;;;;-128.00;-1.00;-1.00;105378;1254;1004247;-77
2023/08/06 11:03:53;;;;;;;6.40;5.80;;;;;;;-128.00;-1.00;-1.00;105149;1254;1003924;-75
2023/08/06 11:06:21;;;;;;;7.40;6.00;;;;;;;-128.00;-1.00;-1.00;105308;1255;1061109;-76
2023/08/06 11:08:53;;;;;;;6.70;5.90;;;;;;;-128.00;-1.00;-1.00;103813;1255;1004267;-76
2023/08/06 11:11:22;;;;;;;6.00;5.40;;;;;;;-128.00;-1.00;-1.00;103228;1254;1061833;-76
2023/08/06 11:13:51;;;;;;;7.90;5.50;;;;;;;-128.00;-1.00;-1.00;103895;1261;1047208;-79
2023/08/06 11:16:25;;;;;;;9.60;6.90;;;;;;;-128.00;-1.00;-1.00;103255;1261;1003950;-77
2023/08/06 11:18:54;;;;;;;6.90;5.60;;;;;;;-128.00;-1.00;-1.00;101814;1256;1062510;-79
2023/08/06 11:21:22;;;;;;;7.60;6.00;;;;;;;-128.00;-1.00;-1.00;101659;1262;1056907;-79
2023/08/06 11:23:49;;;;;;;13.20;5.30;;;;;;;-128.00;-1.00;-1.00;101921;1257;1004784;-79